Time;durP1;ratioP1;P1;durP2;ratioP2;P2;SDS_P1;SDS_P2;PMS_P1;PMS_P2;Temp;Humidity;BMP_temperature;BMP_pressure;BME280_temperature;BME280_humidity;BME280_pressure;Samples;Min_cycle;Max_cycle;Signal;HPM_P1;HPM_P2
2021/10/25 00:00:21;;;;;;;8.10;5.35;;;5.80;99.90;;;;;;4946570;28;20023;-81
2021/10/25 00:02:47;;;;;;;7.95;4.85;;;5.80;99.90;;;;;;4921598;28;20539;-81
2021/10/25 00:05:12;;;;;;;10.02;5.55;;;5.90;99.90;;;;;;4930207;29;20040;-81
2021/10/25 00:07:38;;;;;;;14.40;5.18;;;5.90;99.90;;;;;;4901325;29;20102;-81
2021/10/25 00:10:04;;;;;;;7.85;4.72;;;6.00;99.90;;;;;;4912774;29;20846;-81
2021/10/25 00:12:30;;;;;;;11.52;5.63;;;5.90;99.90;;;;;;4927050;29;20067;-81
2021/10/25 00:14:56;;;;;;;6.65;4.97;;;5.80;99.90;;;;;;4915989;29;20497;-82
2021/10/25 00:17:22;;;;;;;11.85;5.45;;;5.80;99.90;;;;;;4929182;29;20067;-80
2021/10/25 00:19:47;;;;;;;10.10;4.82;;;6.00;99.90;;;;;;4915338;29;20032;-82
2021/10/25 00:22:13;;;;;;;8.65;4.95;;;6.00;99.90;;;;;;4945410;28;20052;-81
2021/10/25 00:24:38;;;;;;;18.13;8.65;;;5.90;99.90;;;;;;4935530;29;20062;-81
2021/10/25 00:27:04;;;;;;;8.60;5.50;;;5.70;99.90;;;;;;4926869;29;20520;-81
2021/10/25 00:29:29;;;;;;;11.68;5.78;;;5.60;99.90;;;;;;4928943;29;20043;-81
2021/10/25 00:31:55;;;;;;;15.25;6.03;;;5.50;99.90;;;;;;4917668;29;20043;-81
2021/10/25 00:34:20;;;;;;;8.25;5.63;;;5.50;99.90;;;;;;4928561;29;20028;-80
2021/10/25 00:36:46;;;;;;;12.65;5.30;;;5.50;99.90;;;;;;4914863;28;20370;-81
2021/10/25 00:39:12;;;;;;;9.75;5.40;;;5.40;99.90;;;;;;4929437;29;20038;-81
2021/10/25 00:41:37;;;;;;;7.75;4.85;;;5.40;99.90;;;;;;4927113;29;20043;-80
2021/10/25 00:44:03;;;;;;;9.77;5.15;;;5.30;99.90;;;;;;4917675;29;20028;-81
2021/10/25 00:46:29;;;;;;;12.25;4.75;;;5.40;99.90;;;;;;4944009;28;20040;-81
2021/10/25 00:48:54;;;;;;;8.93;5.15;;;5.30;99.90;;;;;;4941438;28;20399;-81
2021/10/25 00:51:21;;;;;;;8.98;5.35;;;5.30;99.90;;;;;;4940416;28;20032;-81
2021/10/25 00:53:46;;;;;;;9.13;5.60;;;5.20;99.90;;;;;;4921272;29;20094;-81
2021/10/25 00:56:12;;;;;;;8.32;5.80;;;5.20;99.90;;;;;;4945327;29;20663;-80
2021/10/25 00:58:37;;;;;;;8.15;5.43;;;5.20;99.90;;;;;;4899152;29;20373;-80
2021/10/25 01:01:03;;;;;;;12.75;6.05;;;5.20;99.90;;;;;;4938489;29;20032;-81
2021/10/25 01:03:29;;;;;;;12.63;6.22;;;5.20;99.90;;;;;;4922204;28;20055;-81
2021/10/25 01:05:55;;;;;;;9.07;6.18;;;5.10;99.90;;;;;;4912504;29;20070;-80
2021/10/25 01:08:21;;;;;;;8.60;5.53;;;5.10;99.90;;;;;;4943501;28;20046;-81
2021/10/25 01:10:46;;;;;;;9.98;6.13;;;5.00;99.90;;;;;;4913931;28;20020;-81
2021/10/25 01:13:12;;;;;;;10.40;6.00;;;5.00;99.90;;;;;;4929466;29;20444;-80
2021/10/25 01:15:38;;;;;;;12.23;5.50;;;5.00;99.90;;;;;;4899051;29;20039;-81
2021/10/25 01:18:04;;;;;;;9.18;4.80;;;5.00;99.90;;;;;;4947250;28;20036;-80
2021/10/25 01:20:31;;;;;;;10.80;5.72;;;4.90;99.90;;;;;;4928174;29;20071;-80
2021/10/25 01:22:56;;;;;;;8.20;6.13;;;5.00;99.90;;;;;;4910784;29;20090;-80
2021/10/25 01:25:22;;;;;;;9.63;5.88;;;4.90;99.90;;;;;;4943338;28;20119;-80
2021/10/25 01:27:48;;;;;;;8.10;6.18;;;4.90;99.90;;;;;;4912853;29;20840;-80
2021/10/25 01:30:14;;;;;;;10.65;6.18;;;4.80;99.90;;;;;;4928815;29;20031;-81
2021/10/25 01:32:41;;;;;;;10.20;5.25;;;4.80;99.90;;;;;;4945395;28;20511;-81
2021/10/25 01:35:07;;;;;;;8.98;5.10;;;4.90;99.90;;;;;;4942845;28;20036;-81
2021/10/25 01:37:32;;;;;;;8.27;6.13;;;4.90;99.90;;;;;;4940210;28;20024;-81
2021/10/25 01:39:58;;;;;;;12.48;6.47;;;4.90;99.90;;;;;;4904598;29;20119;-81
2021/10/25 01:42:23;;;;;;;7.68;5.55;;;4.90;99.90;;;;;;4927276;28;20028;-80
2021/10/25 01:44:49;;;;;;;9.02;5.88;;;4.90;99.90;;;;;;4911493;29;20123;-81
2021/10/25 01:47:15;;;;;;;9.10;6.22;;;5.00;99.90;;;;;;4929072;28;20032;-81
2021/10/25 01:49:40;;;;;;;9.75;6.43;;;5.00;99.90;;;;;;4910666;29;20035;-80
2021/10/25 01:52:06;;;;;;;11.57;6.30;;;4.90;99.90;;;;;;4942198;28;20769;-81
2021/10/25 01:54:32;;;;;;;12.20;5.88;;;4.80;99.90;;;;;;4928041;29;20484;-81
2021/10/25 01:56:57;;;;;;;7.40;4.43;;;5.00;99.90;;;;;;4907568;29;20059;-80
2021/10/25 01:59:23;;;;;;;6.57;4.95;;;5.20;99.90;;;;;;4927976;29;20047;-80
2021/10/25 02:01:49;;;;;;;9.90;5.10;;;5.20;99.90;;;;;;4894501;29;20032;-80
2021/10/25 02:04:14;;;;;;;9.93;5.30;;;5.10;99.90;;;;;;4909841;29;20704;-81
2021/10/25 02:06:40;;;;;;;6.45;4.65;;;5.20;99.90;;;;;;4910542;29;20070;-80
2021/10/25 02:09:06;;;;;;;11.55;5.65;;;5.10;99.90;;;;;;4927792;29;20051;-80
2021/10/25 02:11:31;;;;;;;9.57;5.32;;;5.20;99.90;;;;;;4928123;29;20518;-80
2021/10/25 02:13:57;;;;;;;11.90;5.45;;;5.10;99.90;;;;;;4911401;29;20456;-81
2021/10/25 02:16:23;;;;;;;11.52;5.70;;;5.10;99.90;;;;;;4942876;28;20123;-83
2021/10/25 02:18:48;;;;;;;9.10;5.18;;;5.00;99.90;;;;;;4896877;29;20035;-81
2021/10/25 02:21:14;;;;;;;7.63;5.03;;;4.90;99.90;;;;;;4913068;29;20738;-80
2021/10/25 02:23:40;;;;;;;10.50;5.78;;;5.10;99.90;;;;;;4897505;29;20117;-81
2021/10/25 02:26:05;;;;;;;9.20;5.38;;;5.00;99.90;;;;;;4894661;29;20062;-80
2021/10/25 02:28:32;;;;;;;8.45;5.35;;;4.90;99.90;;;;;;4942664;28;20063;-80
2021/10/25 02:30:57;;;;;;;8.73;5.78;;;4.90;99.90;;;;;;4930229;29;20040;-80
2021/10/25 02:33:23;;;;;;;12.38;6.10;;;4.80;99.90;;;;;;4927051;29;20075;-81
2021/10/25 02:35:49;;;;;;;7.80;6.07;;;4.80;99.90;;;;;;4927756;29;20035;-81
2021/10/25 02:38:14;;;;;;;12.98;6.05;;;4.80;99.90;;;;;;4942068;28;20044;-80
2021/10/25 02:40:40;;;;;;;9.30;6.07;;;4.70;99.90;;;;;;4900773;29;20032;-81
2021/10/25 02:43:06;;;;;;;17.38;6.28;;;4.70;99.90;;;;;;4926850;28;20048;-81
2021/10/25 02:45:33;;;;;;;10.02;7.00;;;4.70;99.90;;;;;;4907843;29;20091;-81
2021/10/25 02:47:59;;;;;;;9.23;5.80;;;4.60;99.90;;;;;;4926370;29;20032;-81
2021/10/25 02:50:25;;;;;;;9.10;5.68;;;4.60;99.90;;;;;;4926655;28;20028;-80
2021/10/25 02:52:51;;;;;;;11.60;6.85;;;4.70;99.90;;;;;;4926180;29;20518;-82
2021/10/25 02:55:17;;;;;;;9.00;6.00;;;4.60;99.90;;;;;;4935720;28;20111;-80
2021/10/25 02:57:42;;;;;;;9.80;6.53;;;4.60;99.90;;;;;;4912448;29;20028;-81
2021/10/25 03:00:09;;;;;;;10.50;6.80;;;4.60;99.90;;;;;;4939976;29;20028;-80
2021/10/25 03:02:35;;;;;;;11.90;6.75;;;4.60;99.90;;;;;;4899629;28;20031;-80
2021/10/25 03:05:00;;;;;;;9.98;6.18;;;4.60;99.90;;;;;;4924419;29;20555;-81
2021/10/25 03:07:26;;;;;;;9.93;6.38;;;4.70;99.90;;;;;;4929462;28;20062;-80
2021/10/25 03:09:51;;;;;;;10.88;5.97;;;4.70;99.90;;;;;;4894970;29;20046;-80
2021/10/25 03:12:17;;;;;;;9.23;5.47;;;4.70;99.90;;;;;;4941524;28;20036;-81
2021/10/25 03:14:43;;;;;;;11.68;6.47;;;4.70;99.90;;;;;;4910695;29;20032;-81
2021/10/25 03:17:09;;;;;;;12.68;6.50;;;4.80;99.90;;;;;;4926800;29;20032;-80
2021/10/25 03:19:37;;;;;;;9.90;6.20;;;4.70;99.90;;;;;;4914924;29;20127;-81
2021/10/25 03:22:05;;;;;;;9.18;6.10;;;4.70;99.90;;;;;;4911985;29;20555;-81
2021/10/25 03:24:30;;;;;;;10.02;5.32;;;4.80;99.90;;;;;;4916732;28;20035;-81
2021/10/25 03:26:56;;;;;;;11.57;6.03;;;4.70;99.90;;;;;;4897516;29;20095;-81
2021/10/25 03:29:21;;;;;;;10.60;5.55;;;4.80;99.90;;;;;;4923980;29;20481;-80
2021/10/25 03:31:48;;;;;;;9.38;5.60;;;4.80;99.90;;;;;;4896373;29;20410;-81
2021/10/25 03:34:13;;;;;;;7.85;5.53;;;4.70;99.90;;;;;;4926694;29;20055;-81
2021/10/25 03:36:42;;;;;;;15.43;5.65;;;4.70;99.90;;;;;;4896395;29;20035;-81
2021/10/25 03:39:08;;;;;;;8.85;6.13;;;4.80;99.90;;;;;;4928700;29;20044;-81
2021/10/25 03:41:40;;;;;;;8.82;6.07;;;4.70;99.90;;;;;;4910348;28;20024;-80
2021/10/25 03:46:48;;;;;;;9.50;6.05;;;4.80;99.90;;;;;;4941441;28;20128;-81
2021/10/25 03:49:24;;;;;;;9.35;4.63;;;4.90;99.90;;;;;;4925867;29;20039;-80
2021/10/25 03:51:50;;;;;;;;;;;4.90;99.90;;;;;;4904598;29;20039;-81
2021/10/25 03:54:26;;;;;;;11.25;4.95;;;4.90;99.90;;;;;;4931053;29;19914;-81
2021/10/25 04:02:42;;;;;;;7.53;5.75;;;4.80;99.90;;;;;;4940531;28;20103;-81
2021/10/25 04:13:43;;;;;;;9.57;6.32;;;4.60;99.90;;;;;;4939812;29;20039;-81
2021/10/25 04:27:31;;;;;;;10.63;7.55;;;4.30;99.90;;;;;;4914732;29;20046;-80
2021/10/25 04:30:02;;;;;;;15.68;7.60;;;4.20;99.90;;;;;;4238012;28;10000544;-80
2021/10/25 04:32:28;;;;;;;10.50;6.22;;;4.30;99.90;;;;;;4927529;28;20035;-81
2021/10/25 04:34:54;;;;;;;10.98;6.35;;;4.40;99.90;;;;;;4910978;29;20036;-80
2021/10/25 04:37:19;;;;;;;9.65;6.65;;;4.40;99.90;;;;;;4906896;29;20032;-81
2021/10/25 04:39:45;;;;;;;9.88;6.43;;;4.40;99.90;;;;;;4909845;29;20032;-80
2021/10/25 04:42:14;;;;;;;11.55;7.03;;;4.40;99.90;;;;;;4939041;29;20424;-81
2021/10/25 04:44:39;;;;;;;13.68;7.40;;;4.40;99.90;;;;;;4897718;29;20035;-81
2021/10/25 04:47:05;;;;;;;14.77;7.25;;;4.40;99.90;;;;;;4921882;29;20389;-81
2021/10/25 04:49:31;;;;;;;16.52;6.60;;;4.40;99.90;;;;;;4915372;29;20078;-81
2021/10/25 04:51:56;;;;;;;13.73;6.65;;;4.30;99.90;;;;;;4909623;29;20440;-81
2021/10/25 04:54:22;;;;;;;13.10;7.22;;;4.30;99.90;;;;;;4939858;29;20514;-81
2021/10/25 04:56:47;;;;;;;11.57;6.60;;;4.40;99.90;;;;;;4909856;29;20119;-81
2021/10/25 04:59:13;;;;;;;10.30;6.28;;;4.30;99.90;;;;;;4909535;29;20115;-82
2021/10/25 05:01:38;;;;;;;11.65;6.28;;;4.30;99.90;;;;;;4927844;29;20031;-81
2021/10/25 05:04:04;;;;;;;9.32;4.78;;;4.40;99.90;;;;;;4926951;29;20123;-81
2021/10/25 05:06:29;;;;;;;9.02;4.72;;;4.60;99.90;;;;;;4941179;29;20085;-81
2021/10/25 05:08:55;;;;;;;8.07;5.22;;;4.70;99.90;;;;;;4937277;29;20040;-81
2021/10/25 05:11:20;;;;;;;9.82;6.25;;;4.60;99.90;;;;;;4928690;29;20036;-81
2021/10/25 05:13:47;;;;;;;8.15;6.38;;;4.50;99.90;;;;;;4906962;29;20122;-81
2021/10/25 05:16:13;;;;;;;14.98;7.20;;;4.40;99.90;;;;;;4924952;29;20029;-81
2021/10/25 05:18:38;;;;;;;12.65;7.70;;;4.40;99.90;;;;;;4900582;29;20547;-81
2021/10/25 05:21:04;;;;;;;8.18;6.00;;;4.40;99.90;;;;;;4943442;28;20024;-80
2021/10/25 05:23:29;;;;;;;11.55;5.40;;;4.50;99.90;;;;;;4923568;29;20040;-80
2021/10/25 05:25:55;;;;;;;10.65;6.05;;;4.60;99.90;;;;;;4938330;29;20086;-81
2021/10/25 05:28:20;;;;;;;15.30;5.82;;;4.50;99.90;;;;;;4927716;29;20476;-81
2021/10/25 05:30:49;;;;;;;9.25;6.22;;;4.60;99.90;;;;;;4911559;29;20024;-81
2021/10/25 05:33:15;;;;;;;6.95;5.32;;;4.60;99.90;;;;;;4926380;29;20114;-80
2021/10/25 05:35:40;;;;;;;14.40;6.07;;;4.60;99.90;;;;;;4894978;29;20135;-81
2021/10/25 05:38:06;;;;;;;11.38;5.45;;;4.60;99.90;;;;;;4908426;29;20035;-82
2021/10/25 05:40:32;;;;;;;8.95;5.40;;;4.70;99.90;;;;;;4927646;29;20039;-81
2021/10/25 05:42:57;;;;;;;13.77;5.82;;;4.70;99.90;;;;;;4910610;29;20028;-80
2021/10/25 05:45:23;;;;;;;9.40;5.28;;;4.70;99.90;;;;;;4931187;29;20028;-81
2021/10/25 05:47:50;;;;;;;10.88;5.30;;;4.70;99.90;;;;;;4893389;29;20072;-81
2021/10/25 05:50:15;;;;;;;8.73;3.92;;;4.80;99.90;;;;;;4926068;29;20036;-80
2021/10/25 05:52:41;;;;;;;8.52;4.47;;;4.90;99.90;;;;;;4892869;28;20082;-81
2021/10/25 05:55:07;;;;;;;9.38;4.93;;;5.00;99.90;;;;;;4937025;28;20043;-82
2021/10/25 05:57:32;;;;;;;6.82;4.10;;;5.10;99.90;;;;;;4923331;29;20059;-80
2021/10/25 05:59:58;;;;;;;7.90;3.80;;;5.10;99.90;;;;;;4938229;29;20040;-81
2021/10/25 06:04:51;;;;;;;6.38;4.20;;;5.20;99.90;;;;;;4938598;28;20062;-81
2021/10/25 06:07:16;;;;;;;6.43;4.30;;;5.10;99.90;;;;;;4926536;29;20043;-81
2021/10/25 06:09:44;;;;;;;11.35;5.65;;;5.10;99.90;;;;;;4941672;28;20056;-81
2021/10/25 06:12:15;;;;;;;8.20;4.63;;;5.00;99.90;;;;;;4928455;29;20039;-81
2021/10/25 06:14:44;;;;;;;7.93;4.53;;;5.10;99.90;;;;;;4913002;29;20231;-80
2021/10/25 06:17:54;;;;;;;8.43;4.82;;;5.00;99.90;;;;;;4897902;29;20442;-80
2021/10/25 06:19:59;;;;;;;7.80;4.57;;;5.10;99.90;;;;;;4917374;28;20126;-81
2021/10/25 06:22:25;;;;;;;6.25;4.20;;;5.00;99.90;;;;;;4930548;28;20106;-81
2021/10/25 06:24:50;;;;;;;8.45;4.85;;;5.10;99.90;;;;;;4913982;29;20051;-80
2021/10/25 06:27:16;;;;;;;8.32;4.90;;;5.00;99.90;;;;;;4899523;28;20043;-81
2021/10/25 06:29:41;;;;;;;12.18;7.00;;;4.80;99.90;;;;;;4914138;28;20327;-81
2021/10/25 06:32:07;;;;;;;12.13;6.25;;;4.80;99.90;;;;;;4926283;29;20503;-81
2021/10/25 06:34:39;;;;;;;9.95;4.90;;;4.90;99.90;;;;;;4901344;29;20031;-81
2021/10/25 06:37:05;;;;;;;9.50;5.50;;;4.90;99.90;;;;;;4902660;29;20035;-80
2021/10/25 06:39:37;;;;;;;9.27;5.00;;;4.90;99.90;;;;;;4914430;28;20047;-82
2021/10/25 06:42:04;;;;;;;6.88;5.30;;;4.80;99.90;;;;;;4916476;29;20070;-80
2021/10/25 06:44:31;;;;;;;11.85;5.45;;;4.80;99.90;;;;;;4913135;29;20032;-81
2021/10/25 06:46:57;;;;;;;8.60;4.47;;;4.80;99.90;;;;;;4897942;29;20106;-81
2021/10/25 06:49:22;;;;;;;7.93;5.20;;;5.00;99.90;;;;;;4923366;28;20039;-81
2021/10/25 06:51:48;;;;;;;7.15;4.10;;;5.00;99.90;;;;;;4914144;28;20043;-81
2021/10/25 06:54:14;;;;;;;8.60;4.88;;;5.00;99.90;;;;;;4939231;28;20463;-81
2021/10/25 06:56:39;;;;;;;13.35;5.22;;;5.00;99.90;;;;;;4917630;28;20527;-81
2021/10/25 06:59:05;;;;;;;8.68;4.63;;;5.10;99.90;;;;;;4943322;28;20039;-81
2021/10/25 07:01:30;;;;;;;6.53;5.00;;;5.10;99.90;;;;;;4912519;28;20039;-81
2021/10/25 07:03:57;;;;;;;9.30;5.20;;;5.10;99.90;;;;;;4908059;29;20051;-81
2021/10/25 07:06:22;;;;;;;7.43;4.70;;;5.00;99.90;;;;;;4942403;28;20046;-81
2021/10/25 07:08:49;;;;;;;7.85;5.05;;;5.00;99.90;;;;;;4894165;28;20044;-81
2021/10/25 07:11:16;;;;;;;8.50;5.20;;;4.90;99.90;;;;;;4945493;28;20032;-81
2021/10/25 07:13:46;;;;;;;8.35;5.00;;;5.10;99.90;;;;;;4887805;29;20032;-81
2021/10/25 07:17:18;;;;;;;6.18;4.00;;;5.20;99.90;;;;;;4930174;29;20457;-81
2021/10/25 07:22:17;;;;;;;7.50;4.03;;;5.40;99.90;;;;;;4943813;28;20043;-81
2021/10/25 07:59:38;;;;;;;5.47;3.38;;;5.90;99.90;;;;;;4880101;29;20111;-81
2021/10/25 08:01:05;;;;;;;6.10;3.70;;;7.40;99.90;;;;;;4899279;29;20435;-83
2021/10/25 08:04:23;;;;;;;5.60;3.60;;;7.40;99.90;;;;;;4907003;29;20552;-83
2021/10/25 08:06:33;;;;;;;6.55;3.78;;;7.50;99.90;;;;;;4906609;29;20417;-84
2021/10/25 08:09:26;;;;;;;6.53;3.50;;;7.90;99.90;;;;;;4899341;29;20036;-82
2021/10/25 08:11:53;;;;;;;4.40;3.25;;;7.90;99.90;;;;;;4945231;28;20412;-83
2021/10/25 08:14:19;;;;;;;5.13;3.03;;;8.20;99.90;;;;;;4928573;29;20486;-82
2021/10/25 08:16:51;;;;;;;8.90;2.80;;;8.20;99.90;;;;;;4926554;28;20114;-83
2021/10/25 08:19:27;;;;;;;8.07;3.13;;;8.30;99.90;;;;;;4915436;29;20470;-83
2021/10/25 08:21:58;;;;;;;5.55;3.35;;;8.50;99.90;;;;;;4903034;29;20051;-82
2021/10/25 08:24:25;;;;;;;4.10;2.88;;;8.40;99.90;;;;;;4902515;29;20031;-82
2021/10/25 08:26:51;;;;;;;6.80;3.00;;;8.60;99.90;;;;;;4915111;29;20082;-83
2021/10/25 08:29:18;;;;;;;5.45;2.83;;;8.90;99.90;;;;;;4925395;29;20044;-83
2021/10/25 08:31:47;;;;;;;3.38;2.28;;;9.00;99.90;;;;;;4905178;29;20040;-83
2021/10/25 08:34:38;;;;;;;5.93;2.65;;;9.20;99.90;;;;;;4900818;29;20117;-83
2021/10/25 08:39:47;;;;;;;4.63;2.33;;;9.60;99.90;;;;;;4912149;29;20038;-83
2021/10/25 08:42:20;;;;;;;6.60;2.78;;;9.70;99.90;;;;;;4901367;29;20516;-83
2021/10/25 08:44:47;;;;;;;4.70;2.70;;;10.00;99.90;;;;;;4906378;29;20028;-83
2021/10/25 08:47:19;;;;;;;4.57;2.55;;;10.30;99.90;;;;;;4913924;29;20377;-84
2021/10/25 08:49:44;;;;;;;4.68;2.13;;;10.60;99.90;;;;;;4909445;29;20036;-83
2021/10/25 08:52:10;;;;;;;4.65;2.83;;;10.50;99.90;;;;;;4912969;29;20094;-83
2021/10/25 08:54:36;;;;;;;9.32;2.75;;;10.50;99.90;;;;;;4928626;29;20032;-83
2021/10/25 08:57:01;;;;;;;3.70;2.17;;;10.50;99.90;;;;;;4938352;28;20048;-83
2021/10/25 08:59:29;;;;;;;3.88;1.90;;;10.70;99.90;;;;;;4914832;29;20059;-83
2021/10/25 09:02:04;;;;;;;3.88;2.25;;;11.10;98.90;;;;;;4907991;29;20480;-83
2021/10/25 09:04:29;;;;;;;4.65;2.60;;;11.20;98.80;;;;;;4923404;29;20568;-83
2021/10/25 09:06:57;;;;;;;7.80;2.45;;;11.40;98.70;;;;;;4918938;28;20031;-83
2021/10/25 09:09:23;;;;;;;7.93;2.97;;;11.50;99.10;;;;;;4929287;28;20063;-83
2021/10/25 09:12:09;;;;;;;4.53;2.22;;;11.40;98.50;;;;;;4902877;29;20452;-82
2021/10/25 09:14:35;;;;;;;3.75;2.17;;;11.60;98.10;;;;;;4937727;28;20034;-82
2021/10/25 09:17:03;;;;;;;2.63;1.15;;;11.90;97.40;;;;;;4917795;29;20058;-83
2021/10/25 09:19:32;;;;;;;3.50;1.80;;;12.00;97.50;;;;;;4918369;28;20089;-82
2021/10/25 09:22:13;;;;;;;5.32;2.42;;;12.00;97.30;;;;;;4914158;29;20396;-82
2021/10/25 09:24:39;;;;;;;3.92;2.17;;;12.40;96.80;;;;;;4916286;29;20562;-83
2021/10/25 09:27:06;;;;;;;2.15;1.50;;;12.40;96.70;;;;;;4904898;29;20459;-82
2021/10/25 09:29:34;;;;;;;4.55;2.50;;;12.70;96.20;;;;;;4899414;28;20043;-83
2021/10/25 09:32:09;;;;;;;7.68;2.53;;;12.90;95.00;;;;;;4915502;29;20440;-82
2021/10/25 09:34:49;;;;;;;6.83;3.13;;;12.80;96.20;;;;;;4919629;28;20138;-82
2021/10/25 09:37:18;;;;;;;4.53;2.13;;;12.80;95.80;;;;;;4900694;29;20534;-82
2021/10/25 09:39:51;;;;;;;4.60;2.08;;;13.30;94.40;;;;;;4912382;29;20035;-83
2021/10/25 09:45:21;;;;;;;5.85;2.17;;;13.40;95.10;;;;;;4917068;28;20520;-81
2021/10/25 09:50:31;;;;;;;5.55;1.90;;;13.90;94.50;;;;;;4932524;29;20071;-82
2021/10/25 09:52:58;;;;;;;4.57;2.40;;;13.90;94.00;;;;;;4915529;29;20141;-82
2021/10/25 09:55:23;;;;;;;5.80;2.10;;;14.00;94.80;;;;;;4915587;29;20051;-82
2021/10/25 09:58:04;;;;;;;3.88;1.92;;;14.00;93.70;;;;;;4914856;29;20058;-82
2021/10/25 10:00:29;;;;;;;5.05;2.50;;;14.20;94.00;;;;;;4929644;28;20031;-82
2021/10/25 10:02:55;;;;;;;4.47;2.25;;;14.10;94.20;;;;;;4928186;29;20089;-82
2021/10/25 10:05:24;;;;;;;5.53;1.77;;;14.20;93.20;;;;;;4928057;29;20039;-82
2021/10/25 10:07:50;;;;;;;4.75;2.13;;;14.20;93.30;;;;;;4908330;29;20042;-82
2021/10/25 10:10:19;;;;;;;4.43;2.15;;;14.30;93.10;;;;;;4912213;29;20444;-82
2021/10/25 10:12:46;;;;;;;3.50;1.73;;;14.20;92.90;;;;;;4889870;29;20032;-81
2021/10/25 10:15:23;;;;;;;3.63;1.88;;;14.30;93.30;;;;;;4929786;28;20391;-82
2021/10/25 10:17:53;;;;;;;3.47;1.85;;;14.20;94.00;;;;;;4897820;29;20032;-81
2021/10/25 10:20:32;;;;;;;3.08;1.30;;;14.20;92.70;;;;;;4917787;28;20032;-82
2021/10/25 10:23:00;;;;;;;3.05;1.55;;;14.30;92.60;;;;;;4914616;29;20035;-82
2021/10/25 10:25:30;;;;;;;4.10;2.08;;;14.40;93.00;;;;;;4910301;29;20029;-82
2021/10/25 10:28:07;;;;;;;2.55;1.70;;;14.40;93.00;;;;;;4244335;29;10000367;-83
2021/10/25 10:30:34;;;;;;;4.80;1.83;;;14.60;92.40;;;;;;4913185;29;20040;-83
2021/10/25 10:33:01;;;;;;;2.95;1.30;;;14.70;92.80;;;;;;4909061;29;20385;-82
2021/10/25 10:35:31;;;;;;;4.03;1.90;;;14.70;92.20;;;;;;4908600;29;20031;-83
2021/10/25 10:38:00;;;;;;;4.93;2.67;;;14.80;93.20;;;;;;4924869;29;20040;-82
2021/10/25 10:40:38;;;;;;;1.08;0.73;;;14.90;94.60;;;;;;4923802;29;20044;-83
2021/10/25 10:43:20;;;;;;;2.53;1.60;;;14.80;92.70;;;;;;4911064;29;20376;-82
2021/10/25 10:45:59;;;;;;;5.50;1.95;;;14.80;92.30;;;;;;4898862;29;20071;-83
2021/10/25 10:48:26;;;;;;;7.32;3.92;;;14.80;92.40;;;;;;4897209;29;20044;-83
2021/10/25 10:51:03;;;;;;;3.22;1.80;;;14.80;92.30;;;;;;4928835;29;20054;-83
2021/10/25 10:53:33;;;;;;;4.78;2.22;;;14.90;92.10;;;;;;4942886;28;20032;-83
2021/10/25 10:56:04;;;;;;;3.03;1.77;;;14.80;92.50;;;;;;4911030;29;20508;-83
2021/10/25 11:01:32;;;;;;;5.78;1.92;;;14.70;92.10;;;;;;4873905;29;20083;-83
2021/10/25 11:04:04;;;;;;;4.68;2.45;;;14.80;92.00;;;;;;4938798;28;20487;-84
2021/10/25 11:06:37;;;;;;;2.30;1.60;;;14.80;92.00;;;;;;4926952;29;20517;-84
2021/10/25 11:09:10;;;;;;;4.50;1.80;;;14.80;92.20;;;;;;4893272;29;20412;-84
2021/10/25 11:11:39;;;;;;;3.70;2.03;;;14.90;91.90;;;;;;4910672;29;20039;-83
2021/10/25 11:14:07;;;;;;;4.15;2.10;;;15.00;91.70;;;;;;4935110;28;20075;-83
2021/10/25 11:17:02;;;;;;;2.83;2.10;;;15.00;92.20;;;;;;4927118;29;20063;-84
2021/10/25 11:19:27;;;;;;;4.80;2.30;;;15.10;92.80;;;;;;4917745;29;20079;-84
2021/10/25 11:21:55;;;;;;;3.17;1.95;;;15.00;92.00;;;;;;4910770;29;20043;-84
2021/10/25 11:24:21;;;;;;;4.35;1.80;;;15.10;92.40;;;;;;4894564;29;20036;-84
2021/10/25 11:26:47;;;;;;;2.33;1.77;;;15.10;92.40;;;;;;4909839;28;20501;-84
2021/10/25 11:29:35;;;;;;;5.55;2.05;;;15.10;91.90;;;;;;4940801;28;20043;-84
2021/10/25 11:32:08;;;;;;;2.75;1.83;;;15.10;91.50;;;;;;4910505;29;20041;-84
2021/10/25 11:34:44;;;;;;;3.85;2.38;;;15.10;92.00;;;;;;4926867;29;20067;-84
2021/10/25 11:37:20;;;;;;;3.63;1.90;;;15.40;92.00;;;;;;4890523;29;20393;-85
2021/10/25 11:39:50;;;;;;;;;;;15.40;91.70;;;;;;4928651;29;20439;-84
2021/10/25 11:42:19;;;;;;;3.60;2.17;;;15.50;91.40;;;;;;4898534;29;20302;-85
2021/10/25 11:44:45;;;;;;;1.70;1.13;;;15.50;91.00;;;;;;4902898;29;20036;-84
2021/10/25 11:47:48;;;;;;;3.15;2.00;;;15.40;91.50;;;;;;4939115;28;20067;-84
2021/10/25 11:50:18;;;;;;;4.95;1.85;;;15.60;91.10;;;;;;4898788;29;20036;-84
2021/10/25 11:53:14;;;;;;;3.13;1.67;;;15.70;91.30;;;;;;4927389;29;20032;-84
2021/10/25 11:55:40;;;;;;;4.57;2.05;;;15.60;90.30;;;;;;4936869;29;20027;-84
2021/10/25 11:58:10;;;;;;;3.88;1.90;;;15.70;90.40;;;;;;4941713;28;20366;-85
2021/10/25 12:00:41;;;;;;;5.00;1.90;;;15.70;90.60;;;;;;4911901;29;20036;-84
2021/10/25 12:03:09;;;;;;;3.42;1.90;;;15.90;91.10;;;;;;4924186;29;20492;-84
2021/10/25 12:05:35;;;;;;;5.28;1.63;;;16.40;92.40;;;;;;4929092;29;20067;-85
2021/10/25 12:08:01;;;;;;;2.40;1.25;;;16.10;91.10;;;;;;4924482;29;20732;-85
2021/10/25 12:10:26;;;;;;;4.15;1.73;;;16.10;90.70;;;;;;4927680;29;20071;-85
2021/10/25 12:12:53;;;;;;;3.25;2.22;;;16.00;90.50;;;;;;4921825;29;20135;-85
2021/10/25 12:15:19;;;;;;;3.47;2.20;;;16.10;91.90;;;;;;4918605;29;20171;-85
2021/10/25 12:17:46;;;;;;;4.43;1.70;;;16.40;91.20;;;;;;4897503;29;20654;-85
2021/10/25 12:20:12;;;;;;;3.53;1.90;;;16.40;92.20;;;;;;4909485;29;20055;-85
2021/10/25 12:22:41;;;;;;;2.95;2.00;;;16.30;90.10;;;;;;4898086;29;20130;-84
2021/10/25 12:25:06;;;;;;;4.38;2.15;;;16.20;90.30;;;;;;4942863;28;20028;-85
2021/10/25 12:27:41;;;;;;;4.43;2.03;;;16.10;90.20;;;;;;4912499;29;20040;-85
2021/10/25 12:30:08;;;;;;;3.55;2.10;;;16.10;90.10;;;;;;4895724;29;20032;-85
2021/10/25 12:32:35;;;;;;;2.75;2.00;;;16.30;92.20;;;;;;4929335;29;20091;-85
2021/10/25 12:35:01;;;;;;;3.00;1.88;;;16.60;93.80;;;;;;4928448;29;20572;-85
2021/10/25 12:37:29;;;;;;;6.28;1.83;;;16.40;90.50;;;;;;4929164;29;20055;-85
2021/10/25 12:39:55;;;;;;;4.72;1.65;;;16.20;89.90;;;;;;4913480;29;20426;-84
2021/10/25 12:42:25;;;;;;;3.63;1.77;;;16.10;90.00;;;;;;4912157;29;20516;-85
2021/10/25 12:44:54;;;;;;;3.90;1.70;;;16.20;90.30;;;;;;4911747;29;20501;-84
2021/10/25 12:47:24;;;;;;;2.83;1.95;;;16.30;90.10;;;;;;4925315;29;20496;-84
2021/10/25 12:49:52;;;;;;;3.13;1.58;;;16.20;90.30;;;;;;4927609;29;20571;-85
2021/10/25 12:52:18;;;;;;;6.18;2.13;;;16.20;89.90;;;;;;4944590;28;20060;-84
2021/10/25 12:54:44;;;;;;;4.35;1.88;;;16.40;90.30;;;;;;4896015;29;20039;-84
2021/10/25 12:57:16;;;;;;;2.67;1.77;;;16.30;88.40;;;;;;4939162;28;20031;-84
2021/10/25 12:59:42;;;;;;;3.58;1.88;;;16.40;89.50;;;;;;4908013;29;20087;-84
2021/10/25 13:02:09;;;;;;;3.58;2.08;;;16.60;90.80;;;;;;4929220;29;20032;-84
2021/10/25 13:04:38;;;;;;;4.15;1.80;;;16.50;90.00;;;;;;4914748;29;20063;-84
2021/10/25 13:07:14;;;;;;;3.05;1.63;;;16.40;89.00;;;;;;4903614;29;20539;-84
2021/10/25 13:09:46;;;;;;;2.53;1.85;;;16.50;88.80;;;;;;4912812;28;20039;-84
2021/10/25 13:12:12;;;;;;;3.38;1.77;;;16.50;88.50;;;;;;4928240;28;20085;-84
2021/10/25 13:14:38;;;;;;;3.03;1.88;;;16.50;89.10;;;;;;4911370;29;20039;-84
2021/10/25 13:17:04;;;;;;;3.60;2.28;;;16.70;90.00;;;;;;4899694;29;20050;-84
2021/10/25 13:19:30;;;;;;;3.90;1.83;;;16.70;90.80;;;;;;4930826;29;20583;-84
2021/10/25 13:21:55;;;;;;;8.35;2.22;;;16.80;90.10;;;;;;4912990;29;20048;-84
2021/10/25 13:24:21;;;;;;;4.82;2.03;;;16.60;88.40;;;;;;4915470;28;20044;-84
2021/10/25 13:26:47;;;;;;;4.38;1.73;;;16.40;88.30;;;;;;4929903;29;20050;-84
2021/10/25 13:29:12;;;;;;;2.75;1.60;;;16.20;88.30;;;;;;4922426;29;20054;-84
2021/10/25 13:31:38;;;;;;;4.22;1.90;;;16.30;88.70;;;;;;4912886;29;20448;-84
2021/10/25 13:34:03;;;;;;;3.78;2.08;;;16.40;89.70;;;;;;4915523;29;20042;-84
2021/10/25 13:36:29;;;;;;;2.22;1.80;;;16.40;88.70;;;;;;4916787;28;24630;-84
2021/10/25 13:38:56;;;;;;;3.20;1.67;;;16.50;91.20;;;;;;4894431;29;20066;-84
2021/10/25 13:41:22;;;;;;;2.38;1.67;;;16.70;92.60;;;;;;4931196;29;20519;-84
2021/10/25 13:43:47;;;;;;;3.50;1.95;;;16.70;90.00;;;;;;4915659;29;20023;-84
2021/10/25 13:46:13;;;;;;;4.10;2.10;;;16.30;89.50;;;;;;4934973;28;20027;-84
2021/10/25 13:48:39;;;;;;;3.97;1.90;;;16.40;90.40;;;;;;4915026;29;20020;-84
2021/10/25 13:51:04;;;;;;;3.75;2.33;;;16.20;89.10;;;;;;4914564;28;20051;-84
2021/10/25 13:53:30;;;;;;;5.60;2.45;;;16.30;90.10;;;;;;4925703;29;20047;-84
2021/10/25 13:55:58;;;;;;;2.75;1.73;;;16.40;90.30;;;;;;4900282;28;20039;-84
2021/10/25 13:58:23;;;;;;;4.88;2.22;;;16.30;90.40;;;;;;4916228;28;20057;-84
2021/10/25 14:00:49;;;;;;;5.18;2.50;;;16.00;90.00;;;;;;4914293;29;20051;-84
2021/10/25 14:03:15;;;;;;;5.07;2.17;;;16.00;90.90;;;;;;4927599;28;20031;-84
2021/10/25 14:05:40;;;;;;;5.85;2.22;;;16.30;92.20;;;;;;4911629;29;20044;-84
2021/10/25 14:08:06;;;;;;;3.95;2.58;;;16.20;90.50;;;;;;4940164;28;20056;-84
2021/10/25 14:10:44;;;;;;;5.60;2.20;;;16.00;91.20;;;;;;4909314;29;20508;-83
2021/10/25 14:13:16;;;;;;;5.50;2.17;;;16.00;90.50;;;;;;4907562;29;20501;-83